sensor_id;sensor_type;location;lat;lon;timestamp;pressure;altitude;pressure_sealevel;temperature;humidity
43153;BME280;28756;49.064;9.290;2022-08-21T00:00:23;99131.38;;;11.83;98.59
43153;BME280;28756;49.064;9.290;2022-08-21T00:02:56;99132.41;;;11.80;98.93
43153;BME280;28756;49.064;9.290;2022-08-21T00:05:24;99133.50;;;11.76;98.71
43153;BME280;28756;49.064;9.290;2022-08-21T00:07:50;99120.69;;;11.73;99.71
43153;BME280;28756;49.064;9.290;2022-08-21T00:10:17;99128.75;;;11.68;99.76
43153;BME280;28756;49.064;9.290;2022-08-21T00:12:44;99124.56;;;11.66;99.94
43153;BME280;28756;49.064;9.290;2022-08-21T00:15:18;99131.63;;;11.64;99.83
43153;BME280;28756;49.064;9.290;2022-08-21T00:17:44;99129.19;;;11.61;99.84
43153;BME280;28756;49.064;9.290;2022-08-21T00:20:12;99125.09;;;11.57;99.16
43153;BME280;28756;49.064;9.290;2022-08-21T00:22:40;99132.25;;;11.53;99.21
43153;BME280;28756;49.064;9.290;2022-08-21T00:25:07;99126.88;;;11.56;98.82
43153;BME280;28756;49.064;9.290;2022-08-21T00:27:33;99132.00;;;11.58;98.76
43153;BME280;28756;49.064;9.290;2022-08-21T00:29:59;99125.22;;;11.55;98.84
43153;BME280;28756;49.064;9.290;2022-08-21T00:32:28;99128.81;;;11.52;99.45
43153;BME280;28756;49.064;9.290;2022-08-21T00:34:54;99128.25;;;11.47;99.36
43153;BME280;28756;49.064;9.290;2022-08-21T00:37:20;99126.66;;;11.45;99.87
43153;BME280;28756;49.064;9.290;2022-08-21T00:39:46;99123.38;;;11.41;100.00
43153;BME280;28756;49.064;9.290;2022-08-21T00:42:13;99126.91;;;11.40;100.00
43153;BME280;28756;49.064;9.290;2022-08-21T00:44:46;99127.84;;;11.39;100.00
43153;BME280;28756;49.064;9.290;2022-08-21T00:47:12;99129.69;;;11.37;100.00
43153;BME280;28756;49.064;9.290;2022-08-21T00:49:39;99120.22;;;11.36;100.00
43153;BME280;28756;49.064;9.290;2022-08-21T00:52:10;99117.03;;;11.31;100.00
43153;BME280;28756;49.064;9.290;2022-08-21T00:54:38;99113.00;;;11.25;100.00
43153;BME280;28756;49.064;9.290;2022-08-21T00:57:10;99116.56;;;11.24;100.00
43153;BME280;28756;49.064;9.290;2022-08-21T00:59:40;99121.91;;;11.21;100.00
43153;BME280;28756;49.064;9.290;2022-08-21T01:02:08;99111.66;;;11.18;100.00
43153;BME280;28756;49.064;9.290;2022-08-21T01:04:34;99120.69;;;11.12;100.00
43153;BME280;28756;49.064;9.290;2022-08-21T01:07:00;99122.69;;;11.07;100.00
43153;BME280;28756;49.064;9.290;2022-08-21T01:09:27;99122.03;;;11.03;100.00
43153;BME280;28756;49.064;9.290;2022-08-21T01:11:52;99121.09;;;11.04;100.00
43153;BME280;28756;49.064;9.290;2022-08-21T01:14:18;99128.25;;;11.01;100.00
43153;BME280;28756;49.064;9.290;2022-08-21T01:16:48;99128.34;;;10.99;100.00
43153;BME280;28756;49.064;9.290;2022-08-21T01:19:17;99124.16;;;10.97;100.00
43153;BME280;28756;49.064;9.290;2022-08-21T01:21:44;99129.59;;;10.92;100.00
43153;BME280;28756;49.064;9.290;2022-08-21T01:24:11;99131.34;;;10.92;100.00
43153;BME280;28756;49.064;9.290;2022-08-21T01:26:37;99126.34;;;10.88;100.00
43153;BME280;28756;49.064;9.290;2022-08-21T01:31:38;99125.72;;;10.83;100.00
43153;BME280;28756;49.064;9.290;2022-08-21T01:34:05;99122.38;;;10.81;100.00
43153;BME280;28756;49.064;9.290;2022-08-21T01:36:31;99123.47;;;10.77;100.00
43153;BME280;28756;49.064;9.290;2022-08-21T01:38:57;99129.59;;;10.76;100.00
43153;BME280;28756;49.064;9.290;2022-08-21T01:41:23;99124.47;;;10.74;100.00
43153;BME280;28756;49.064;9.290;2022-08-21T01:43:49;99125.41;;;10.73;100.00
43153;BME280;28756;49.064;9.290;2022-08-21T01:46:16;99121.13;;;10.72;100.00
43153;BME280;28756;49.064;9.290;2022-08-21T01:48:43;99121.28;;;10.69;100.00
43153;BME280;28756;49.064;9.290;2022-08-21T01:51:09;99116.94;;;10.70;100.00
43153;BME280;28756;49.064;9.290;2022-08-21T01:53:35;99119.69;;;10.67;100.00
43153;BME280;28756;49.064;9.290;2022-08-21T01:56:05;99116.25;;;10.66;100.00
43153;BME280;28756;49.064;9.290;2022-08-21T01:58:32;99109.47;;;10.64;100.00
43153;BME280;28756;49.064;9.290;2022-08-21T02:00:58;99109.63;;;10.61;100.00
43153;BME280;28756;49.064;9.290;2022-08-21T02:03:24;99104.66;;;10.56;100.00
43153;BME280;28756;49.064;9.290;2022-08-21T02:05:50;99100.47;;;10.53;100.00
43153;BME280;28756;49.064;9.290;2022-08-21T02:08:16;99111.97;;;10.49;100.00
43153;BME280;28756;49.064;9.290;2022-08-21T02:10:41;99102.66;;;10.45;100.00
43153;BME280;28756;49.064;9.290;2022-08-21T02:13:08;99104.59;;;10.41;100.00
43153;BME280;28756;49.064;9.290;2022-08-21T02:15:34;99103.75;;;10.41;100.00
43153;BME280;28756;49.064;9.290;2022-08-21T02:18:02;99113.47;;;10.37;100.00
43153;BME280;28756;49.064;9.290;2022-08-21T02:20:35;99108.56;;;10.31;100.00
43153;BME280;28756;49.064;9.290;2022-08-21T02:23:03;99099.84;;;10.32;100.00
43153;BME280;28756;49.064;9.290;2022-08-21T02:25:29;99099.78;;;10.34;100.00
43153;BME280;28756;49.064;9.290;2022-08-21T02:27:56;99099.06;;;10.30;100.00
43153;BME280;28756;49.064;9.290;2022-08-21T02:30:28;99100.03;;;10.29;100.00
43153;BME280;28756;49.064;9.290;2022-08-21T02:32:55;99091.38;;;10.28;100.00
43153;BME280;28756;49.064;9.290;2022-08-21T02:35:22;99094.16;;;10.25;100.00
43153;BME280;28756;49.064;9.290;2022-08-21T02:37:57;99095.06;;;10.24;100.00
43153;BME280;28756;49.064;9.290;2022-08-21T02:40:28;99093.28;;;10.25;100.00
43153;BME280;28756;49.064;9.290;2022-08-21T02:42:57;99094.28;;;10.22;100.00
43153;BME280;28756;49.064;9.290;2022-08-21T02:45:23;99087.50;;;10.20;100.00
43153;BME280;28756;49.064;9.290;2022-08-21T02:48:03;99098.13;;;10.15;100.00
43153;BME280;28756;49.064;9.290;2022-08-21T02:50:36;99100.06;;;10.11;100.00
43153;BME280;28756;49.064;9.290;2022-08-21T02:53:05;99100.06;;;10.11;100.00
43153;BME280;28756;49.064;9.290;2022-08-21T02:55:34;99102.81;;;10.08;100.00
43153;BME280;28756;49.064;9.290;2022-08-21T02:58:04;99106.31;;;10.07;100.00
43153;BME280;28756;49.064;9.290;2022-08-21T03:00:32;99103.72;;;10.07;100.00
43153;BME280;28756;49.064;9.290;2022-08-21T03:02:59;99106.50;;;10.04;100.00
43153;BME280;28756;49.064;9.290;2022-08-21T03:05:27;99098.72;;;10.04;100.00
43153;BME280;28756;49.064;9.290;2022-08-21T03:07:53;99093.66;;;10.01;100.00
43153;BME280;28756;49.064;9.290;2022-08-21T03:10:21;99099.84;;;9.99;100.00
43153;BME280;28756;49.064;9.290;2022-08-21T03:12:48;99090.28;;;9.99;100.00
43153;BME280;28756;49.064;9.290;2022-08-21T03:15:17;99099.03;;;9.98;100.00
43153;BME280;28756;49.064;9.290;2022-08-21T03:17:45;99092.22;;;9.95;100.00
43153;BME280;28756;49.064;9.290;2022-08-21T03:20:13;99101.88;;;9.93;100.00
43153;BME280;28756;49.064;9.290;2022-08-21T03:22:40;99103.78;;;9.90;100.00
43153;BME280;28756;49.064;9.290;2022-08-21T03:25:06;99106.44;;;9.88;100.00
43153;BME280;28756;49.064;9.290;2022-08-21T03:27:33;99099.50;;;9.89;100.00
43153;BME280;28756;49.064;9.290;2022-08-21T03:30:00;99100.41;;;9.88;100.00
43153;BME280;28756;49.064;9.290;2022-08-21T03:32:27;99094.53;;;9.84;100.00
43153;BME280;28756;49.064;9.290;2022-08-21T03:34:52;99095.53;;;9.82;100.00
43153;BME280;28756;49.064;9.290;2022-08-21T03:37:18;99100.13;;;9.76;100.00
43153;BME280;28756;49.064;9.290;2022-08-21T03:39:44;99108.06;;;9.73;100.00
43153;BME280;28756;49.064;9.290;2022-08-21T03:42:11;99110.69;;;9.73;100.00
43153;BME280;28756;49.064;9.290;2022-08-21T03:44:38;99104.63;;;9.73;100.00
43153;BME280;28756;49.064;9.290;2022-08-21T03:47:05;99110.13;;;9.67;100.00
43153;BME280;28756;49.064;9.290;2022-08-21T03:49:31;99116.31;;;9.64;100.00
43153;BME280;28756;49.064;9.290;2022-08-21T03:51:57;99113.97;;;9.59;100.00
43153;BME280;28756;49.064;9.290;2022-08-21T03:54:23;99124.44;;;9.58;100.00
43153;BME280;28756;49.064;9.290;2022-08-21T03:56:48;99117.69;;;9.54;100.00
43153;BME280;28756;49.064;9.290;2022-08-21T03:59:14;99116.78;;;9.55;100.00
43153;BME280;28756;49.064;9.290;2022-08-21T04:01:54;99124.56;;;9.55;100.00
43153;BME280;28756;49.064;9.290;2022-08-21T04:04:20;99127.16;;;9.55;100.00
43153;BME280;28756;49.064;9.290;2022-08-21T04:06:46;99128.94;;;9.54;100.00
43153;BME280;28756;49.064;9.290;2022-08-21T04:09:12;99128.16;;;9.52;100.00
43153;BME280;28756;49.064;9.290;2022-08-21T04:11:38;99127.31;;;9.52;100.00
43153;BME280;28756;49.064;9.290;2022-08-21T04:14:03;99138.69;;;9.49;100.00
43153;BME280;28756;49.064;9.290;2022-08-21T04:16:30;99132.66;;;9.48;100.00
43153;BME280;28756;49.064;9.290;2022-08-21T04:18:56;99137.94;;;9.47;100.00
43153;BME280;28756;49.064;9.290;2022-08-21T04:21:22;99143.97;;;9.47;100.00
43153;BME280;28756;49.064;9.290;2022-08-21T04:23:49;99136.72;;;9.54;100.00
43153;BME280;28756;49.064;9.290;2022-08-21T04:26:15;99141.06;;;9.54;100.00
43153;BME280;28756;49.064;9.290;2022-08-21T04:28:41;99140.28;;;9.52;100.00
43153;BME280;28756;49.064;9.290;2022-08-21T04:31:08;99149.03;;;9.51;100.00
43153;BME280;28756;49.064;9.290;2022-08-21T04:33:34;99150.97;;;9.45;100.00
43153;BME280;28756;49.064;9.290;2022-08-21T04:36:00;99153.44;;;9.48;100.00
43153;BME280;28756;49.064;9.290;2022-08-21T04:38:27;99152.66;;;9.46;100.00
43153;BME280;28756;49.064;9.290;2022-08-21T04:40:53;99159.63;;;9.46;100.00
43153;BME280;28756;49.064;9.290;2022-08-21T04:43:19;99161.13;;;9.50;100.00
43153;BME280;28756;49.064;9.290;2022-08-21T04:45:49;99160.78;;;9.58;100.00
43153;BME280;28756;49.064;9.290;2022-08-21T04:48:19;99165.97;;;9.58;100.00
43153;BME280;28756;49.064;9.290;2022-08-21T04:53:54;99163.19;;;9.61;100.00
43153;BME280;28756;49.064;9.290;2022-08-21T04:56:33;99163.06;;;9.64;100.00
43153;BME280;28756;49.064;9.290;2022-08-21T04:59:19;99168.94;;;9.68;100.00
43153;BME280;28756;49.064;9.290;2022-08-21T05:01:47;99171.91;;;9.77;100.00
43153;BME280;28756;49.064;9.290;2022-08-21T05:04:17;99175.28;;;9.97;100.00
43153;BME280;28756;49.064;9.290;2022-08-21T05:06:46;99176.66;;;10.04;100.00
43153;BME280;28756;49.064;9.290;2022-08-21T05:09:17;99173.59;;;10.14;100.00
43153;BME280;28756;49.064;9.290;2022-08-21T05:11:44;99167.66;;;10.27;100.00
43153;BME280;28756;49.064;9.290;2022-08-21T05:14:11;99168.66;;;10.42;100.00
43153;BME280;28756;49.064;9.290;2022-08-21T05:16:37;99171.44;;;10.55;100.00
43153;BME280;28756;49.064;9.290;2022-08-21T05:19:07;99176.41;;;10.76;100.00
43153;BME280;28756;49.064;9.290;2022-08-21T05:21:40;99172.16;;;10.91;100.00
43153;BME280;28756;49.064;9.290;2022-08-21T05:24:06;99177.75;;;11.15;100.00
43153;BME280;28756;49.064;9.290;2022-08-21T05:26:33;99176.53;;;11.37;99.34
43153;BME280;28756;49.064;9.290;2022-08-21T05:28:59;99171.94;;;11.73;98.97
43153;BME280;28756;49.064;9.290;2022-08-21T05:31:24;99170.91;;;12.06;96.91
43153;BME280;28756;49.064;9.290;2022-08-21T05:33:50;99168.91;;;12.40;95.54
43153;BME280;28756;49.064;9.290;2022-08-21T05:36:18;99172.78;;;12.61;92.71
43153;BME280;28756;49.064;9.290;2022-08-21T05:38:43;99166.50;;;12.93;91.29
43153;BME280;28756;49.064;9.290;2022-08-21T05:41:09;99170.72;;;13.23;89.67
43153;BME280;28756;49.064;9.290;2022-08-21T05:43:35;99169.09;;;13.62;87.71
43153;BME280;28756;49.064;9.290;2022-08-21T05:46:03;99170.59;;;13.92;85.49
43153;BME280;28756;49.064;9.290;2022-08-21T05:48:30;99165.28;;;14.32;83.66
43153;BME280;28756;49.064;9.290;2022-08-21T05:50:56;99168.81;;;14.70;82.55
43153;BME280;28756;49.064;9.290;2022-08-21T05:53:23;99158.44;;;15.06;80.47
43153;BME280;28756;49.064;9.290;2022-08-21T05:55:50;99153.69;;;15.35;79.91
43153;BME280;28756;49.064;9.290;2022-08-21T05:58:19;99151.41;;;15.55;77.99
43153;BME280;28756;49.064;9.290;2022-08-21T06:00:47;99149.66;;;15.67;77.05
43153;BME280;28756;49.064;9.290;2022-08-21T06:03:21;99148.22;;;15.62;77.26
43153;BME280;28756;49.064;9.290;2022-08-21T06:05:47;99148.44;;;15.95;76.43
43153;BME280;28756;49.064;9.290;2022-08-21T06:08:15;99151.25;;;15.81;77.19
43153;BME280;28756;49.064;9.290;2022-08-21T06:10:43;99150.72;;;16.00;77.28
43153;BME280;28756;49.064;9.290;2022-08-21T06:13:09;99160.03;;;16.15;77.31
43153;BME280;28756;49.064;9.290;2022-08-21T06:15:35;99153.72;;;15.82;77.70
43153;BME280;28756;49.064;9.290;2022-08-21T06:18:01;99155.44;;;15.83;79.00
43153;BME280;28756;49.064;9.290;2022-08-21T06:20:27;99154.41;;;15.97;78.91
43153;BME280;28756;49.064;9.290;2022-08-21T06:22:54;99154.91;;;16.25;78.38
43153;BME280;28756;49.064;9.290;2022-08-21T06:25:19;99150.50;;;16.48;77.73
43153;BME280;28756;49.064;9.290;2022-08-21T06:27:46;99142.78;;;16.90;76.17
43153;BME280;28756;49.064;9.290;2022-08-21T06:30:12;99145.13;;;17.49;73.47
43153;BME280;28756;49.064;9.290;2022-08-21T06:32:39;99140.09;;;17.99;71.87
43153;BME280;28756;49.064;9.290;2022-08-21T06:35:05;99125.06;;;18.42;70.60
43153;BME280;28756;49.064;9.290;2022-08-21T06:37:32;99125.09;;;18.52;69.00
43153;BME280;28756;49.064;9.290;2022-08-21T06:39:58;99130.28;;;18.33;69.07
43153;BME280;28756;49.064;9.290;2022-08-21T06:42:24;99122.53;;;18.82;66.42
43153;BME280;28756;49.064;9.290;2022-08-21T06:44:50;99124.75;;;18.86;66.66
43153;BME280;28756;49.064;9.290;2022-08-21T06:47:15;99119.25;;;18.99;66.63
43153;BME280;28756;49.064;9.290;2022-08-21T06:49:41;99124.88;;;18.75;67.61
43153;BME280;28756;49.064;9.290;2022-08-21T06:52:12;99120.38;;;18.97;66.67
43153;BME280;28756;49.064;9.290;2022-08-21T06:54:39;99116.78;;;18.98;65.90
43153;BME280;28756;49.064;9.290;2022-08-21T06:57:05;99115.13;;;19.36;64.92
43153;BME280;28756;49.064;9.290;2022-08-21T06:59:32;99110.94;;;19.53;64.62
43153;BME280;28756;49.064;9.290;2022-08-21T07:01:59;99111.06;;;19.61;64.08
43153;BME280;28756;49.064;9.290;2022-08-21T07:04:25;99113.25;;;19.85;63.38
43153;BME280;28756;49.064;9.290;2022-08-21T07:06:51;99112.00;;;19.90;63.50
43153;BME280;28756;49.064;9.290;2022-08-21T07:09:17;99116.72;;;19.96;62.91
43153;BME280;28756;49.064;9.290;2022-08-21T07:11:45;99119.28;;;19.38;63.03
43153;BME280;28756;49.064;9.290;2022-08-21T07:14:14;99112.72;;;19.42;65.93
43153;BME280;28756;49.064;9.290;2022-08-21T07:16:40;99113.31;;;19.17;65.84
43153;BME280;28756;49.064;9.290;2022-08-21T07:19:06;99110.28;;;19.21;63.30
43153;BME280;28756;49.064;9.290;2022-08-21T07:21:32;99113.88;;;19.20;64.69
43153;BME280;28756;49.064;9.290;2022-08-21T07:23:57;99116.28;;;18.83;64.40
43153;BME280;28756;49.064;9.290;2022-08-21T07:26:24;99117.84;;;18.95;65.46
43153;BME280;28756;49.064;9.290;2022-08-21T07:28:50;99113.84;;;19.01;64.01
43153;BME280;28756;49.064;9.290;2022-08-21T07:31:19;99118.31;;;19.10;64.18
43153;BME280;28756;49.064;9.290;2022-08-21T07:33:45;99116.78;;;19.17;66.00
43153;BME280;28756;49.064;9.290;2022-08-21T07:36:11;99114.53;;;19.71;62.93
43153;BME280;28756;49.064;9.290;2022-08-21T07:38:38;99116.31;;;19.81;61.95
43153;BME280;28756;49.064;9.290;2022-08-21T07:41:15;99118.75;;;20.02;62.98
43153;BME280;28756;49.064;9.290;2022-08-21T07:43:41;99104.59;;;20.41;61.33
43153;BME280;28756;49.064;9.290;2022-08-21T07:46:07;99103.19;;;20.36;61.25
43153;BME280;28756;49.064;9.290;2022-08-21T07:48:33;99095.25;;;20.92;59.38
43153;BME280;28756;49.064;9.290;2022-08-21T07:51:05;99101.69;;;21.08;57.92
43153;BME280;28756;49.064;9.290;2022-08-21T07:53:31;99100.81;;;20.71;57.53
43153;BME280;28756;49.064;9.290;2022-08-21T07:55:58;99110.13;;;20.10;59.22
43153;BME280;28756;49.064;9.290;2022-08-21T07:58:24;99100.22;;;19.54;62.40
43153;BME280;28756;49.064;9.290;2022-08-21T08:00:49;99098.81;;;20.27;60.00
43153;BME280;28756;49.064;9.290;2022-08-21T08:03:15;99095.13;;;21.12;58.66
43153;BME280;28756;49.064;9.290;2022-08-21T08:05:41;99086.53;;;21.54;56.17
43153;BME280;28756;49.064;9.290;2022-08-21T08:08:07;99089.16;;;21.99;55.75
43153;BME280;28756;49.064;9.290;2022-08-21T08:10:33;99083.66;;;21.92;53.43
43153;BME280;28756;49.064;9.290;2022-08-21T08:12:59;99083.13;;;22.23;54.62
43153;BME280;28756;49.064;9.290;2022-08-21T08:15:27;99078.31;;;22.18;53.11
43153;BME280;28756;49.064;9.290;2022-08-21T08:17:53;99080.19;;;21.91;53.90
43153;BME280;28756;49.064;9.290;2022-08-21T08:20:20;99074.06;;;21.46;55.28
43153;BME280;28756;49.064;9.290;2022-08-21T08:22:47;99064.53;;;22.06;55.13
43153;BME280;28756;49.064;9.290;2022-08-21T08:25:14;99061.56;;;22.09;55.26
43153;BME280;28756;49.064;9.290;2022-08-21T08:27:41;99069.75;;;21.01;56.44
43153;BME280;28756;49.064;9.290;2022-08-21T08:30:11;99059.69;;;21.23;55.47
43153;BME280;28756;49.064;9.290;2022-08-21T08:32:37;99055.41;;;21.66;54.10
43153;BME280;28756;49.064;9.290;2022-08-21T08:35:05;99056.72;;;21.97;54.87
43153;BME280;28756;49.064;9.290;2022-08-21T08:37:32;99046.75;;;21.90;52.30
43153;BME280;28756;49.064;9.290;2022-08-21T08:39:57;99044.69;;;22.45;53.04
43153;BME280;28756;49.064;9.290;2022-08-21T08:42:33;99033.13;;;22.54;53.97
43153;BME280;28756;49.064;9.290;2022-08-21T08:45:08;99048.31;;;22.44;51.74
43153;BME280;28756;49.064;9.290;2022-08-21T08:47:39;99043.00;;;22.01;52.28
43153;BME280;28756;49.064;9.290;2022-08-21T08:50:22;99033.19;;;23.12;52.32
43153;BME280;28756;49.064;9.290;2022-08-21T08:52:59;99019.16;;;23.76;50.48
43153;BME280;28756;49.064;9.290;2022-08-21T08:55:43;99013.66;;;24.57;48.68
43153;BME280;28756;49.064;9.290;2022-08-21T08:58:16;99023.91;;;24.69;46.08
43153;BME280;28756;49.064;9.290;2022-08-21T09:00:49;99018.22;;;25.18;46.21
43153;BME280;28756;49.064;9.290;2022-08-21T09:03:15;99027.03;;;24.96;46.61
43153;BME280;28756;49.064;9.290;2022-08-21T09:05:48;99015.25;;;25.51;44.36
43153;BME280;28756;49.064;9.290;2022-08-21T09:14:24;99010.38;;;25.40;44.15
43153;BME280;28756;49.064;9.290;2022-08-21T09:17:37;99017.47;;;25.48;46.06
43153;BME280;28756;49.064;9.290;2022-08-21T09:20:19;99020.38;;;24.45;45.65
43153;BME280;28756;49.064;9.290;2022-08-21T09:26:06;99011.22;;;25.56;44.03
43153;BME280;28756;49.064;9.290;2022-08-21T09:28:35;99006.59;;;26.24;40.03
43153;BME280;28756;49.064;9.290;2022-08-21T09:31:06;99003.69;;;26.77;39.50
43153;BME280;28756;49.064;9.290;2022-08-21T09:33:32;98994.16;;;26.90;41.14
43153;BME280;28756;49.064;9.290;2022-08-21T09:35:58;98991.88;;;26.28;40.39
43153;BME280;28756;49.064;9.290;2022-08-21T09:38:36;98984.63;;;27.31;42.01
43153;BME280;28756;49.064;9.290;2022-08-21T09:41:09;98987.31;;;27.66;38.39
43153;BME280;28756;49.064;9.290;2022-08-21T09:43:37;99004.34;;;25.76;42.04
43153;BME280;28756;49.064;9.290;2022-08-21T09:46:10;98998.00;;;25.47;43.32
43153;BME280;28756;49.064;9.290;2022-08-21T09:48:50;98989.81;;;26.09;44.09
43153;BME280;28756;49.064;9.290;2022-08-21T09:51:35;98995.16;;;25.11;42.20
43153;BME280;28756;49.064;9.290;2022-08-21T09:59:36;98983.16;;;26.05;41.90
43153;BME280;28756;49.064;9.290;2022-08-21T10:02:29;98975.91;;;26.72;41.18
43153;BME280;28756;49.064;9.290;2022-08-21T10:05:03;98974.38;;;26.84;38.85
43153;BME280;28756;49.064;9.290;2022-08-21T10:07:37;98970.69;;;27.07;39.01
43153;BME280;28756;49.064;9.290;2022-08-21T10:10:14;98960.31;;;27.89;38.43
43153;BME280;28756;49.064;9.290;2022-08-21T10:12:59;98971.16;;;25.94;41.20
43153;BME280;28756;49.064;9.290;2022-08-21T10:18:45;98962.06;;;27.40;38.21
43153;BME280;28756;49.064;9.290;2022-08-21T10:21:21;98960.84;;;26.42;41.13
43153;BME280;28756;49.064;9.290;2022-08-21T10:29:59;98947.56;;;27.14;36.73
43153;BME280;28756;49.064;9.290;2022-08-21T10:32:57;98946.19;;;27.60;35.44
43153;BME280;28756;49.064;9.290;2022-08-21T10:35:33;98947.72;;;28.38;35.33
43153;BME280;28756;49.064;9.290;2022-08-21T10:38:47;98955.13;;;26.89;36.98
43153;BME280;28756;49.064;9.290;2022-08-21T10:45:06;98953.00;;;25.82;38.85
43153;BME280;28756;49.064;9.290;2022-08-21T10:47:54;98942.25;;;27.21;36.99
43153;BME280;28756;49.064;9.290;2022-08-21T10:50:47;98939.97;;;27.18;34.33
43153;BME280;28756;49.064;9.290;2022-08-21T10:53:41;98935.88;;;27.99;35.81
43153;BME280;28756;49.064;9.290;2022-08-21T10:56:21;98928.81;;;28.93;33.91
43153;BME280;28756;49.064;9.290;2022-08-21T10:59:32;98925.50;;;28.44;34.27
43153;BME280;28756;49.064;9.290;2022-08-21T11:02:17;98921.81;;;29.06;36.21
43153;BME280;28756;49.064;9.290;2022-08-21T11:08:01;98916.00;;;28.21;34.95
43153;BME280;28756;49.064;9.290;2022-08-21T11:10:45;98934.34;;;27.06;37.39
43153;BME280;28756;49.064;9.290;2022-08-21T11:13:30;98930.09;;;26.83;36.96
43153;BME280;28756;49.064;9.290;2022-08-21T11:19:58;98914.19;;;28.35;33.18
43153;BME280;28756;49.064;9.290;2022-08-21T11:28:36;98912.13;;;28.37;34.08
43153;BME280;28756;49.064;9.290;2022-08-21T11:31:36;98916.06;;;27.38;34.03
43153;BME280;28756;49.064;9.290;2022-08-21T11:37:11;98907.03;;;27.81;33.63
43153;BME280;28756;49.064;9.290;2022-08-21T11:45:36;98895.03;;;27.56;35.24
43153;BME280;28756;49.064;9.290;2022-08-21T11:48:37;98894.78;;;27.16;35.11
43153;BME280;28756;49.064;9.290;2022-08-21T11:51:11;98897.00;;;27.89;36.48
43153;BME280;28756;49.064;9.290;2022-08-21T11:56:55;98899.63;;;27.83;35.52
43153;BME280;28756;49.064;9.290;2022-08-21T12:00:05;98892.47;;;27.97;35.21
43153;BME280;28756;49.064;9.290;2022-08-21T12:02:39;98902.47;;;27.33;33.85
43153;BME280;28756;49.064;9.290;2022-08-21T12:05:11;98900.47;;;27.41;34.02
43153;BME280;28756;49.064;9.290;2022-08-21T12:07:43;98904.06;;;27.27;36.32
43153;BME280;28756;49.064;9.290;2022-08-21T12:10:18;98901.47;;;26.99;34.67
43153;BME280;28756;49.064;9.290;2022-08-21T12:12:47;98901.44;;;26.48;36.45
43153;BME280;28756;49.064;9.290;2022-08-21T12:18:03;98900.88;;;26.53;34.78
43153;BME280;28756;49.064;9.290;2022-08-21T12:23:28;98893.88;;;26.74;33.76
43153;BME280;28756;49.064;9.290;2022-08-21T12:26:27;98888.16;;;26.77;32.96
43153;BME280;28756;49.064;9.290;2022-08-21T12:29:33;98877.59;;;26.90;33.08
43153;BME280;28756;49.064;9.290;2022-08-21T12:32:24;98876.94;;;27.17;33.45
43153;BME280;28756;49.064;9.290;2022-08-21T12:35:33;98870.25;;;27.34;32.40
43153;BME280;28756;49.064;9.290;2022-08-21T12:40:56;98866.72;;;27.69;31.57
43153;BME280;28756;49.064;9.290;2022-08-21T12:43:33;98857.94;;;27.33;31.20
43153;BME280;28756;49.064;9.290;2022-08-21T12:46:00;98862.53;;;27.53;30.68
43153;BME280;28756;49.064;9.290;2022-08-21T12:48:52;98851.78;;;27.88;29.68
43153;BME280;28756;49.064;9.290;2022-08-21T12:51:28;98849.63;;;27.56;31.70
43153;BME280;28756;49.064;9.290;2022-08-21T12:53:58;98849.44;;;27.58;31.70
43153;BME280;28756;49.064;9.290;2022-08-21T12:56:29;98839.22;;;27.75;30.64
43153;BME280;28756;49.064;9.290;2022-08-21T12:59:01;98851.78;;;28.01;30.07
43153;BME280;28756;49.064;9.290;2022-08-21T13:01:32;98844.66;;;28.15;29.78
43153;BME280;28756;49.064;9.290;2022-08-21T13:04:07;98844.97;;;27.79;30.85
43153;BME280;28756;49.064;9.290;2022-08-21T13:06:41;98843.44;;;28.25;30.83
43153;BME280;28756;49.064;9.290;2022-08-21T13:09:14;98845.47;;;28.49;30.38
43153;BME280;28756;49.064;9.290;2022-08-21T13:11:44;98845.91;;;28.26;31.40
43153;BME280;28756;49.064;9.290;2022-08-21T13:14:37;98839.13;;;28.24;31.68
43153;BME280;28756;49.064;9.290;2022-08-21T13:17:05;98850.00;;;27.47;31.94
43153;BME280;28756;49.064;9.290;2022-08-21T13:19:33;98843.03;;;27.59;32.04
43153;BME280;28756;49.064;9.290;2022-08-21T13:22:00;98843.13;;;27.86;31.99
43153;BME280;28756;49.064;9.290;2022-08-21T13:24:37;98845.91;;;27.51;32.36
43153;BME280;28756;49.064;9.290;2022-08-21T13:27:16;98844.56;;;27.75;31.25
43153;BME280;28756;49.064;9.290;2022-08-21T13:29:42;98843.28;;;27.64;31.05
43153;BME280;28756;49.064;9.290;2022-08-21T13:32:22;98845.63;;;27.39;31.90
43153;BME280;28756;49.064;9.290;2022-08-21T13:34:50;98844.38;;;27.35;32.23
43153;BME280;28756;49.064;9.290;2022-08-21T13:37:17;98841.66;;;27.21;32.19
43153;BME280;28756;49.064;9.290;2022-08-21T13:39:51;98828.50;;;27.62;32.10
43153;BME280;28756;49.064;9.290;2022-08-21T13:42:17;98834.56;;;27.42;30.63
43153;BME280;28756;49.064;9.290;2022-08-21T13:44:47;98830.81;;;27.30;31.20
43153;BME280;28756;49.064;9.290;2022-08-21T13:47:15;98833.78;;;27.48;31.44
43153;BME280;28756;49.064;9.290;2022-08-21T13:49:47;98832.69;;;27.36;30.67
43153;BME280;28756;49.064;9.290;2022-08-21T13:52:24;98825.56;;;27.08;31.17
43153;BME280;28756;49.064;9.290;2022-08-21T13:55:00;98829.66;;;27.46;33.04
43153;BME280;28756;49.064;9.290;2022-08-21T13:57:34;98815.81;;;27.29;32.12
43153;BME280;28756;49.064;9.290;2022-08-21T14:00:24;98809.97;;;27.60;32.60
43153;BME280;28756;49.064;9.290;2022-08-21T14:02:52;98821.31;;;27.69;31.26
43153;BME280;28756;49.064;9.290;2022-08-21T14:05:31;98823.53;;;27.58;30.81
43153;BME280;28756;49.064;9.290;2022-08-21T14:08:27;98819.88;;;27.73;30.73
43153;BME280;28756;49.064;9.290;2022-08-21T14:10:55;98825.88;;;28.02;30.48
43153;BME280;28756;49.064;9.290;2022-08-21T14:13:40;98826.47;;;27.84;31.35
43153;BME280;28756;49.064;9.290;2022-08-21T14:16:29;98814.47;;;27.53;31.88
43153;BME280;28756;49.064;9.290;2022-08-21T14:21:41;98814.94;;;27.63;30.69
43153;BME280;28756;49.064;9.290;2022-08-21T14:24:14;98812.31;;;27.90;30.43
43153;BME280;28756;49.064;9.290;2022-08-21T14:29:25;98812.91;;;27.79;30.62